createdAt,value
2018-11-25T00:00:11.429Z,96.27
2018-11-25T00:02:40.533Z,97.77
2018-11-25T00:05:09.506Z,102.53
2018-11-25T00:07:38.333Z,94.27
2018-11-25T00:10:08.003Z,102.73
2018-11-25T00:12:36.918Z,105.37
2018-11-25T00:15:08.018Z,102.10
2018-11-25T00:17:36.960Z,98.12
2018-11-25T00:20:07.388Z,100.90
2018-11-25T00:22:36.679Z,106.03
2018-11-25T00:25:06.317Z,108.43
2018-11-25T00:27:35.117Z,98.47
2018-11-25T00:30:04.495Z,91.63
2018-11-25T00:32:33.383Z,99.23
2018-11-25T00:35:02.241Z,98.33
2018-11-25T00:37:31.073Z,90.30
2018-11-25T00:40:00.294Z,89.57
2018-11-25T00:42:29.850Z,104.03
2018-11-25T00:44:58.670Z,96.33
2018-11-25T00:47:27.928Z,88.50
2018-11-25T00:49:57.319Z,98.13
2018-11-25T00:52:26.265Z,94.97
2018-11-25T00:54:55.129Z,101.20
2018-11-25T00:57:23.941Z,89.43
2018-11-25T00:59:53.218Z,86.40
2018-11-25T01:02:22.110Z,96.83
2018-11-25T01:04:50.904Z,91.17
2018-11-25T01:07:20.210Z,93.53
2018-11-25T01:09:49.491Z,97.17
2018-11-25T01:12:18.387Z,95.27
2018-11-25T01:14:47.205Z,81.30
2018-11-25T01:17:16.268Z,79.97
2018-11-25T01:19:45.282Z,77.37
2018-11-25T01:22:14.505Z,74.97
2018-11-25T01:24:43.429Z,81.23
2018-11-25T01:27:19.125Z,76.60
2018-11-25T01:29:48.065Z,77.80
2018-11-25T01:32:16.857Z,72.87
2018-11-25T01:34:45.686Z,80.03
2018-11-25T01:37:14.878Z,68.93
2018-11-25T01:39:43.778Z,74.37
2018-11-25T01:42:12.998Z,71.83
2018-11-25T01:44:41.870Z,77.23
2018-11-25T01:47:10.857Z,66.27
2018-11-25T01:49:39.728Z,74.40
2018-11-25T01:52:08.502Z,69.07
2018-11-25T01:54:38.269Z,65.97
2018-11-25T01:57:07.083Z,86.00
2018-11-25T01:59:36.334Z,73.77
2018-11-25T02:02:05.846Z,70.30
2018-11-25T02:04:34.768Z,79.43
2018-11-25T02:07:03.624Z,74.13
2018-11-25T02:09:32.842Z,67.63
2018-11-25T02:12:02.146Z,72.57
2018-11-25T02:14:31.045Z,76.20
2018-11-25T02:16:59.907Z,70.73
2018-11-25T02:19:28.811Z,74.13
2018-11-25T02:21:57.600Z,73.40
2018-11-25T02:24:26.405Z,66.87
2018-11-25T02:26:55.254Z,64.77
2018-11-25T02:29:24.089Z,68.87
2018-11-25T02:31:52.898Z,70.90
2018-11-25T02:34:21.741Z,65.50
2018-11-25T02:36:50.970Z,65.53
2018-11-25T02:39:20.958Z,63.25
2018-11-25T02:41:49.879Z,57.37
2018-11-25T02:44:18.740Z,56.10
2018-11-25T02:46:47.939Z,57.53
2018-11-25T02:49:16.865Z,59.87
2018-11-25T02:51:45.693Z,57.97
2018-11-25T02:54:14.518Z,55.13
2018-11-25T02:56:43.337Z,52.33
2018-11-25T02:59:12.198Z,50.20
2018-11-25T03:01:41.061Z,53.30
2018-11-25T03:04:09.909Z,51.67
2018-11-25T03:06:38.748Z,50.10
2018-11-25T03:09:07.689Z,50.80
2018-11-25T03:11:36.521Z,52.43
2018-11-25T03:14:05.622Z,51.63
2018-11-25T03:16:34.410Z,49.70
2018-11-25T03:19:03.697Z,55.33
2018-11-25T03:21:32.601Z,51.35
2018-11-25T03:24:01.831Z,52.10
2018-11-25T03:26:30.761Z,47.90
2018-11-25T03:28:59.982Z,47.83
2018-11-25T03:31:29.290Z,42.33
2018-11-25T03:33:58.216Z,44.73
2018-11-25T03:36:27.026Z,41.20
2018-11-25T03:38:55.909Z,39.57
2018-11-25T03:41:24.741Z,40.70
2018-11-25T03:43:53.611Z,36.83
2018-11-25T03:46:22.477Z,31.60
2018-11-25T03:48:51.399Z,33.20
2018-11-25T03:51:20.226Z,31.53
2018-11-25T03:53:49.480Z,32.10
2018-11-25T03:56:18.669Z,28.87
2018-11-25T03:58:47.613Z,27.40
2018-11-25T04:01:16.434Z,34.60
2018-11-25T04:03:45.328Z,30.20
2018-11-25T04:06:14.145Z,31.67
2018-11-25T04:08:43.009Z,33.60
2018-11-25T04:11:11.833Z,37.17
2018-11-25T04:13:40.658Z,36.27
2018-11-25T04:16:09.505Z,38.63
2018-11-25T04:18:38.333Z,41.13
2018-11-25T04:21:07.128Z,42.63
2018-11-25T04:23:35.994Z,44.90
2018-11-25T04:26:04.906Z,48.77
2018-11-25T04:28:34.118Z,47.07
2018-11-25T04:31:03.010Z,54.73
2018-11-25T04:33:31.820Z,56.33
2018-11-25T04:36:00.653Z,61.20
2018-11-25T04:38:29.878Z,54.30
2018-11-25T04:40:59.505Z,60.80
2018-11-25T04:43:28.293Z,65.43
2018-11-25T04:45:57.725Z,63.43
2018-11-25T04:48:26.541Z,72.33
2018-11-25T04:50:55.361Z,60.57
2018-11-25T04:55:53.937Z,64.60
2018-11-25T05:18:43.824Z,93.20
2018-11-25T05:21:12.645Z,87.00
2018-11-25T05:23:41.505Z,87.50
2018-11-25T05:26:10.346Z,90.43
2018-11-25T05:28:39.162Z,90.00
2018-11-25T05:31:07.976Z,95.47
2018-11-25T05:33:36.765Z,98.50
2018-11-25T05:36:05.621Z,105.63
2018-11-25T05:38:34.453Z,95.97
2018-11-25T05:41:03.271Z,96.90
2018-11-25T05:43:32.157Z,108.03
2018-11-25T05:46:01.017Z,93.57
2018-11-25T05:48:29.823Z,106.47
2018-11-25T05:50:59.110Z,89.67
2018-11-25T05:53:27.999Z,99.37
2018-11-25T05:55:56.803Z,110.27
2018-11-25T05:58:25.646Z,97.40
2018-11-25T06:00:54.453Z,104.20
2018-11-25T06:03:23.633Z,98.37
2018-11-25T06:05:52.542Z,98.90
2018-11-25T06:08:21.366Z,101.20
2018-11-25T06:10:50.181Z,200.37
2018-11-25T06:13:19.030Z,104.93
2018-11-25T06:15:47.903Z,96.73
2018-11-25T06:18:16.712Z,100.13
2018-11-25T06:20:45.550Z,98.20
2018-11-25T06:23:14.377Z,108.63
2018-11-25T06:25:43.197Z,102.50
2018-11-25T06:28:12.405Z,98.87
2018-11-25T06:30:41.301Z,100.07
2018-11-25T06:33:10.125Z,95.63
2018-11-25T06:35:39.350Z,96.07
2018-11-25T06:38:08.241Z,84.97
2018-11-25T06:40:37.407Z,101.77
2018-11-25T06:43:06.373Z,84.47
2018-11-25T06:45:35.547Z,93.90
2018-11-25T06:48:04.468Z,93.00
2018-11-25T06:50:33.654Z,89.00
2018-11-25T06:53:03.018Z,97.13
2018-11-25T06:55:31.936Z,83.58
2018-11-25T06:58:00.824Z,87.43
2018-11-25T07:00:29.625Z,86.63
2018-11-25T07:02:58.420Z,88.40
2018-11-25T07:05:27.665Z,84.57
2018-11-25T07:07:56.600Z,85.55
2018-11-25T07:10:25.418Z,92.97
2018-11-25T07:12:54.613Z,87.13
2018-11-25T07:15:23.608Z,93.13
2018-11-25T07:17:52.443Z,88.87
2018-11-25T07:20:21.332Z,75.53
2018-11-25T07:22:50.153Z,75.43
2018-11-25T07:25:19.881Z,78.93
2018-11-25T07:27:48.781Z,74.37
2018-11-25T07:30:22.009Z,67.33
2018-11-25T07:32:50.867Z,73.17
2018-11-25T07:35:19.676Z,69.87
2018-11-25T07:37:48.525Z,71.93
2018-11-25T07:40:17.834Z,64.90
2018-11-25T07:42:46.665Z,74.73
2018-11-25T07:45:16.040Z,62.60
2018-11-25T07:47:44.933Z,64.20
2018-11-25T07:50:14.114Z,67.63
2018-11-25T07:52:43.573Z,62.47
2018-11-25T07:55:14.909Z,58.93
2018-11-25T07:57:43.848Z,62.83
2018-11-25T08:00:13.611Z,63.50
2018-11-25T08:02:42.423Z,59.87
2018-11-25T08:05:11.889Z,68.30
2018-11-25T08:07:40.689Z,75.43
2018-11-25T08:10:10.350Z,83.33
2018-11-25T08:12:39.190Z,82.00
2018-11-25T08:15:09.977Z,121.37
2018-11-25T08:17:39.057Z,92.83
2018-11-25T08:20:11.964Z,89.30
2018-11-25T08:22:40.797Z,78.57
2018-11-25T08:25:12.701Z,77.40
2018-11-25T08:27:41.550Z,86.17
2018-11-25T08:30:18.337Z,76.53
2018-11-25T08:32:47.246Z,74.57
2018-11-25T08:35:16.325Z,74.17
2018-11-25T08:37:45.216Z,77.63
2018-11-25T08:40:18.457Z,75.03
2018-11-25T08:42:47.262Z,70.50
2018-11-25T08:45:16.046Z,86.97
2018-11-25T08:47:44.896Z,67.77
2018-11-25T08:50:14.138Z,69.93
2018-11-25T08:52:43.300Z,69.53
2018-11-25T08:55:12.706Z,70.80
2018-11-25T08:57:41.562Z,71.47
2018-11-25T09:00:13.830Z,83.63
2018-11-25T09:02:43.327Z,78.27
2018-11-25T09:05:13.244Z,75.60
2018-11-25T09:07:42.128Z,88.40
2018-11-25T09:10:12.256Z,135.47
2018-11-25T09:12:41.049Z,88.30
2018-11-25T09:15:10.633Z,95.90
2018-11-25T09:17:39.485Z,89.90
2018-11-25T09:20:09.394Z,99.37
2018-11-25T09:22:38.198Z,99.53
2018-11-25T09:25:08.921Z,95.03
2018-11-25T09:27:37.711Z,94.53
2018-11-25T09:30:10.706Z,95.77
2018-11-25T09:32:39.520Z,93.60
2018-11-25T09:35:08.378Z,87.07
2018-11-25T09:37:37.402Z,87.87
2018-11-25T09:40:08.183Z,85.33
2018-11-25T09:42:37.090Z,86.93
2018-11-25T09:45:07.342Z,90.93
2018-11-25T09:47:36.627Z,91.77
2018-11-25T09:50:08.242Z,76.33
2018-11-25T09:52:37.193Z,69.20
2018-11-25T09:55:07.207Z,66.10
2018-11-25T09:57:36.454Z,59.03
2018-11-25T10:00:12.454Z,74.90
2018-11-25T10:02:41.275Z,68.17
2018-11-25T10:05:10.182Z,68.87
2018-11-25T10:07:41.528Z,59.50
2018-11-25T10:10:11.200Z,59.80
2018-11-25T10:12:39.993Z,59.60
2018-11-25T10:15:11.214Z,62.30
2018-11-25T10:17:40.182Z,58.07
2018-11-25T10:20:09.796Z,59.43
2018-11-25T10:22:38.590Z,57.43
2018-11-25T10:25:08.373Z,57.57
2018-11-25T10:27:37.630Z,57.50
2018-11-25T10:30:09.766Z,53.93
2018-11-25T10:32:38.597Z,48.00
2018-11-25T10:35:07.719Z,41.70
2018-11-25T10:37:36.547Z,42.33
2018-11-25T10:40:07.890Z,44.73
2018-11-25T10:42:36.713Z,43.07
2018-11-25T10:45:06.689Z,43.00
2018-11-25T10:47:35.593Z,38.27
2018-11-25T10:50:04.506Z,37.17
2018-11-25T10:52:33.309Z,31.23
2018-11-25T10:55:02.523Z,39.93
2018-11-25T10:57:31.409Z,30.97
2018-11-25T11:00:00.233Z,35.97
2018-11-25T11:02:34.475Z,32.10
2018-11-25T11:05:04.708Z,23.13
2018-11-25T11:07:39.446Z,23.27
2018-11-25T11:10:09.046Z,26.80
2018-11-25T11:12:37.893Z,22.20
2018-11-25T11:15:08.594Z,22.40
2018-11-25T11:17:37.420Z,22.87
2018-11-25T11:20:07.357Z,22.83
2018-11-25T11:22:36.174Z,26.20
2018-11-25T11:25:05.281Z,29.27
2018-11-25T11:27:34.150Z,20.57
2018-11-25T11:30:03.076Z,21.23
2018-11-25T11:32:31.865Z,21.23
2018-11-25T11:35:00.713Z,20.93
2018-11-25T11:37:29.507Z,22.17
2018-11-25T11:39:58.503Z,19.47
2018-11-25T11:42:28.652Z,22.80
2018-11-25T11:44:56.154Z,23.10
2018-11-25T11:47:24.950Z,21.83
2018-11-25T11:49:53.809Z,24.73
2018-11-25T11:52:22.617Z,25.00
2018-11-25T11:54:51.404Z,24.33
2018-11-25T11:57:20.222Z,29.63
2018-11-25T11:59:49.120Z,32.23
2018-11-25T12:02:17.945Z,28.60
2018-11-25T12:22:05.903Z,22.17
2018-11-25T12:24:34.727Z,32.83
2018-11-25T12:27:03.546Z,25.20
2018-11-25T12:29:32.822Z,24.90
2018-11-25T12:32:01.741Z,33.13
2018-11-25T12:34:30.534Z,27.27
2018-11-25T12:36:59.362Z,30.67
2018-11-25T12:39:28.576Z,27.50
2018-11-25T12:41:57.291Z,32.50
2018-11-25T12:44:29.348Z,31.90
2018-11-25T12:46:55.022Z,38.47
2018-11-25T12:49:23.878Z,30.27
2018-11-25T12:51:52.741Z,33.77
2018-11-25T12:54:21.594Z,36.93
2018-11-25T12:56:51.872Z,32.17
2018-11-25T12:59:19.281Z,33.23
2018-11-25T13:01:48.085Z,30.47
2018-11-25T13:04:16.898Z,29.07
2018-11-25T13:06:45.693Z,31.23
2018-11-25T13:09:14.537Z,28.40
2018-11-25T13:11:44.444Z,29.27
2018-11-25T13:14:12.522Z,26.17
2018-11-25T13:16:41.437Z,28.60
2018-11-25T13:19:10.674Z,26.07
2018-11-25T13:21:39.618Z,31.70
2018-11-25T13:24:08.506Z,26.00
2018-11-25T13:26:37.294Z,27.90
2018-11-25T13:29:06.846Z,26.80
2018-11-25T13:31:35.734Z,29.73
2018-11-25T13:34:04.621Z,27.70
2018-11-25T13:36:33.442Z,30.20
2018-11-25T13:39:02.275Z,30.63
2018-11-25T13:41:31.119Z,28.93
2018-11-25T13:43:59.945Z,26.43
2018-11-25T13:46:28.797Z,27.20
2018-11-25T13:48:57.964Z,28.17
2018-11-25T13:51:26.857Z,25.50
2018-11-25T13:53:59.246Z,20.10
2018-11-25T13:56:28.204Z,27.13
2018-11-25T13:58:57.011Z,21.40
2018-11-25T14:01:25.876Z,24.43
2018-11-25T14:03:54.669Z,19.63
2018-11-25T14:06:23.493Z,23.60
2018-11-25T14:08:53.130Z,21.80
2018-11-25T14:11:22.009Z,25.50
2018-11-25T14:13:50.827Z,29.27
2018-11-25T14:16:20.213Z,23.40
2018-11-25T14:18:49.010Z,27.70
2018-11-25T14:21:17.862Z,27.43
2018-11-25T14:23:46.700Z,23.33
2018-11-25T14:26:20.314Z,25.10
2018-11-25T14:28:49.465Z,23.97
2018-11-25T14:31:18.335Z,27.60
2018-11-25T14:33:47.158Z,28.63
2018-11-25T14:36:16.005Z,26.40
2018-11-25T14:38:45.295Z,29.67
2018-11-25T14:41:13.676Z,32.93
2018-11-25T14:43:42.473Z,31.70
2018-11-25T14:46:11.281Z,34.80
2018-11-25T14:48:40.086Z,32.43
2018-11-25T14:51:08.942Z,35.97
2018-11-25T14:53:37.764Z,33.10
2018-11-25T14:56:06.558Z,39.43
2018-11-25T14:58:35.375Z,43.10
2018-11-25T15:01:04.186Z,42.37
2018-11-25T15:03:33.215Z,41.80
2018-11-25T15:06:02.035Z,49.17
2018-11-25T15:08:30.861Z,53.60
2018-11-25T15:10:59.717Z,44.43
2018-11-25T15:13:28.557Z,46.77
2018-11-25T15:15:58.109Z,44.23
2018-11-25T15:18:26.945Z,43.57
2018-11-25T15:20:55.777Z,48.47
2018-11-25T15:23:24.582Z,41.63
2018-11-25T15:25:54.073Z,42.53
2018-11-25T15:28:22.877Z,43.10
2018-11-25T15:30:51.721Z,39.87
2018-11-25T15:33:20.533Z,40.37
2018-11-25T15:35:49.323Z,37.20
2018-11-25T15:38:18.193Z,39.27
2018-11-25T15:40:47.055Z,42.50
2018-11-25T15:43:15.857Z,40.40
2018-11-25T15:45:44.709Z,38.37
2018-11-25T15:49:46.149Z,32.80
2018-11-25T15:52:14.967Z,31.43
2018-11-25T15:54:43.801Z,30.90
2018-11-25T15:57:12.652Z,30.17
2018-11-25T15:59:41.519Z,26.20
2018-11-25T16:02:10.379Z,23.93
2018-11-25T16:04:39.181Z,26.67
2018-11-25T16:07:08.019Z,23.23
2018-11-25T16:09:36.861Z,25.93
2018-11-25T16:12:05.761Z,26.73
2018-11-25T16:14:34.621Z,19.57
2018-11-25T16:17:03.440Z,22.97
2018-11-25T16:19:32.322Z,25.43
2018-11-25T16:22:01.153Z,22.47
2018-11-25T16:24:29.963Z,21.40
2018-11-25T16:26:58.782Z,21.27
2018-11-25T16:29:27.733Z,20.45
2018-11-25T16:31:56.666Z,24.67
2018-11-25T16:34:25.914Z,20.73
2018-11-25T16:36:54.790Z,21.33
2018-11-25T16:39:23.597Z,22.53
2018-11-25T16:41:52.481Z,20.33
2018-11-25T16:44:21.305Z,20.33
2018-11-25T16:46:50.173Z,21.70
2018-11-25T16:49:19.761Z,20.90
2018-11-25T16:51:48.676Z,19.57
2018-11-25T16:54:17.534Z,19.77
2018-11-25T16:56:46.329Z,32.03
2018-11-25T16:59:15.182Z,24.60
2018-11-25T17:01:44.049Z,21.60
2018-11-25T17:04:12.944Z,21.53
2018-11-25T17:06:42.536Z,20.20
2018-11-25T17:09:11.826Z,20.30
2018-11-25T17:11:40.754Z,17.87
2018-11-25T17:14:09.626Z,16.60
2018-11-25T17:16:38.454Z,25.50
2018-11-25T17:19:07.253Z,18.20
2018-11-25T17:21:36.450Z,21.57
2018-11-25T17:24:05.428Z,19.07
2018-11-25T17:26:34.223Z,21.90
2018-11-25T17:29:03.009Z,18.17
2018-11-25T17:31:31.834Z,16.52
2018-11-25T17:34:00.689Z,19.70
2018-11-25T17:36:29.481Z,17.07
2018-11-25T17:38:58.278Z,14.83
2018-11-25T17:41:27.120Z,14.43
2018-11-25T17:43:56.016Z,17.40
2018-11-25T17:46:24.913Z,17.80
2018-11-25T17:48:53.841Z,17.60
2018-11-25T17:51:22.690Z,17.00
2018-11-25T17:53:51.593Z,16.57
2018-11-25T17:56:20.406Z,18.83
2018-11-25T17:58:49.442Z,17.07
2018-11-25T18:01:19.043Z,20.03
2018-11-25T18:03:47.925Z,16.83
2018-11-25T18:06:16.757Z,16.97
2018-11-25T18:08:45.622Z,21.53
2018-11-25T18:11:14.480Z,25.57
2018-11-25T18:13:43.334Z,28.13
2018-11-25T18:16:12.930Z,25.63
2018-11-25T18:18:43.677Z,27.13
2018-11-25T18:21:14.513Z,30.53
2018-11-25T18:23:43.386Z,25.03
2018-11-25T18:26:12.289Z,29.60
2018-11-25T18:28:41.104Z,23.87
2018-11-25T18:31:10.448Z,29.23
2018-11-25T18:33:39.293Z,24.17
2018-11-25T18:36:09.105Z,40.90
2018-11-25T18:38:37.905Z,25.20
2018-11-25T18:41:06.713Z,25.60
2018-11-25T18:43:35.575Z,24.00
2018-11-25T18:46:04.963Z,28.10
2018-11-25T18:48:34.348Z,23.75
2018-11-25T18:51:03.137Z,24.37
2018-11-25T18:53:31.989Z,30.87
2018-11-25T18:56:00.790Z,39.17
2018-11-25T18:58:29.607Z,27.33
2018-11-25T19:01:02.661Z,25.63
2018-11-25T19:03:31.879Z,23.03
2018-11-25T19:06:00.805Z,20.13
2018-11-25T19:08:29.678Z,21.97
2018-11-25T19:10:58.529Z,19.57
2018-11-25T19:13:27.540Z,22.00
2018-11-25T19:15:56.418Z,21.57
2018-11-25T19:18:25.272Z,20.67
2018-11-25T19:20:54.106Z,20.57
2018-11-25T19:23:23.310Z,16.93
2018-11-25T19:25:52.870Z,23.73
2018-11-25T19:28:21.938Z,20.53
2018-11-25T19:30:50.754Z,21.83
2018-11-25T19:33:20.340Z,21.83
2018-11-25T19:35:49.182Z,25.27
2018-11-25T19:38:18.086Z,22.83
2018-11-25T19:40:46.985Z,23.07
2018-11-25T19:43:16.218Z,18.57
2018-11-25T19:45:45.329Z,18.63
2018-11-25T19:48:14.157Z,18.60
2018-11-25T19:50:43.567Z,19.37
2018-11-25T19:53:12.925Z,20.17
2018-11-25T19:55:44.769Z,23.03
2018-11-25T19:58:13.778Z,22.87
2018-11-25T20:00:42.586Z,24.63
2018-11-25T20:03:11.518Z,23.60
2018-11-25T20:05:40.369Z,24.50
2018-11-25T20:08:09.190Z,29.97
2018-11-25T20:10:38.070Z,29.43
2018-11-25T20:13:07.764Z,29.20
2018-11-25T20:15:36.816Z,27.43
2018-11-25T20:18:06.090Z,28.40
2018-11-25T20:20:34.883Z,23.17
2018-11-25T20:23:03.729Z,26.37
2018-11-25T20:25:32.586Z,25.77
2018-11-25T20:28:01.413Z,23.53
2018-11-25T20:30:31.321Z,25.60
2018-11-25T20:33:05.410Z,30.87
2018-11-25T20:35:34.261Z,31.27
2018-11-25T20:38:08.519Z,29.80
2018-11-25T20:40:37.374Z,27.20
2018-11-25T20:43:06.367Z,30.37
2018-11-25T20:45:40.613Z,30.63
2018-11-25T20:48:09.409Z,27.83
2018-11-25T20:50:38.225Z,34.50
2018-11-25T20:53:12.372Z,31.53
2018-11-25T20:55:41.206Z,30.10
2018-11-25T20:58:10.451Z,30.83
2018-11-25T21:00:40.145Z,33.17
2018-11-25T21:03:09.475Z,32.03
2018-11-25T21:05:38.730Z,31.83
2018-11-25T21:08:08.012Z,38.83
2018-11-25T21:10:37.629Z,35.93
2018-11-25T21:13:07.553Z,39.37
2018-11-25T21:15:36.494Z,38.92
2018-11-25T21:18:05.544Z,40.90
2018-11-25T21:20:34.358Z,33.97
2018-11-25T21:23:03.173Z,39.40
2018-11-25T21:25:32.516Z,32.43
2018-11-25T21:28:01.449Z,34.30
2018-11-25T21:30:30.300Z,33.73
2018-11-25T21:32:59.856Z,40.80
2018-11-25T21:35:28.772Z,41.13
2018-11-25T21:37:57.605Z,40.90
2018-11-25T21:40:26.535Z,37.07
2018-11-25T21:42:55.745Z,32.17
2018-11-25T21:45:24.637Z,34.93
2018-11-25T21:47:53.489Z,34.97
2018-11-25T21:50:24.127Z,32.33
2018-11-25T21:52:53.093Z,32.00
2018-11-25T21:55:22.378Z,30.67
2018-11-25T21:57:51.326Z,32.90
2018-11-25T22:00:24.344Z,28.50
2018-11-25T22:02:53.185Z,32.67
2018-11-25T22:05:24.828Z,35.30
2018-11-25T22:07:50.918Z,32.60
2018-11-25T22:10:21.150Z,30.25
2018-11-25T22:12:50.229Z,27.07
2018-11-25T22:15:21.765Z,31.20
2018-11-25T22:17:50.904Z,27.23
2018-11-25T22:20:20.273Z,30.53
2018-11-25T22:22:49.073Z,28.37
2018-11-25T22:25:18.759Z,26.63
2018-11-25T22:27:48.350Z,26.90
2018-11-25T22:30:18.028Z,28.30
2018-11-25T22:32:46.845Z,27.40
2018-11-25T22:35:16.197Z,24.97
2018-11-25T22:37:45.042Z,23.87
2018-11-25T22:40:14.603Z,26.43
2018-11-25T22:42:43.821Z,28.33
2018-11-25T22:45:14.050Z,22.10
2018-11-25T22:47:42.930Z,23.50
2018-11-25T22:50:12.242Z,21.47
2018-11-25T22:52:41.068Z,21.93
2018-11-25T22:55:11.389Z,23.23
2018-11-25T22:57:40.208Z,22.23
2018-11-25T23:00:12.618Z,18.97
2018-11-25T23:02:41.709Z,21.70
2018-11-25T23:05:22.065Z,21.77
2018-11-25T23:07:50.966Z,20.33
2018-11-25T23:10:20.145Z,20.17
2018-11-25T23:12:48.993Z,22.57
2018-11-25T23:15:17.812Z,20.70
2018-11-25T23:17:46.634Z,19.03
2018-11-25T23:20:15.477Z,19.40
2018-11-25T23:22:44.721Z,18.67
2018-11-25T23:25:13.613Z,20.43
2018-11-25T23:27:42.436Z,21.07
2018-11-25T23:30:11.336Z,20.10
2018-11-25T23:32:40.188Z,21.33
2018-11-25T23:35:15.222Z,20.90
2018-11-25T23:37:44.473Z,22.10
2018-11-25T23:40:13.432Z,21.70
2018-11-25T23:42:42.285Z,20.60
2018-11-25T23:45:12.600Z,19.47
2018-11-25T23:47:41.419Z,19.27
2018-11-25T23:50:10.757Z,17.20
2018-11-25T23:52:39.580Z,20.47
2018-11-25T23:55:09.327Z,20.90
2018-11-25T23:57:38.181Z,23.13
